Time;durP1;ratioP1;P1;durP2;ratioP2;P2;SDS_P1;SDS_P2;PMS_P1;PMS_P2;Temp;Humidity;BMP_temperature;BMP_pressure;BME280_temperature;BME280_humidity;BME280_pressure;Samples;Min_cycle;Max_cycle;Signal;HPM_P1;HPM_P2
2023/01/05 00:02:19;;;;;;;5.53;2.47;;;;;;;;;;12820613;19;20022;-65
2023/01/05 00:06:41;;;;;;;4.57;2.22;;;;;;;;;;12821052;19;20361;-65
2023/01/05 00:25:20;;;;;;;6.15;2.67;;;;;;;;;;12819160;19;20074;-67
2023/01/05 00:29:37;;;;;;;5.53;2.35;;;;;;;;;;12817878;19;20010;-66
2023/01/05 00:33:55;;;;;;;2.75;2.03;;;;;;;;;;12815626;19;20450;-66
2023/01/05 00:38:12;;;;;;;4.47;2.27;;;;;;;;;;12818874;19;20376;-67
2023/01/05 00:42:30;;;;;;;3.45;2.22;;;;;;;;;;12816039;19;20442;-66
2023/01/05 00:46:47;;;;;;;2.58;1.80;;;;;;;;;;12817763;19;20528;-66
2023/01/05 00:51:04;;;;;;;3.17;2.10;;;;;;;;;;12817113;19;20384;-65
2023/01/05 00:55:22;;;;;;;2.83;1.95;;;;;;;;;;12814050;19;20488;-66
2023/01/05 00:59:40;;;;;;;3.00;1.80;;;;;;;;;;12817619;19;20085;-66
2023/01/05 01:03:58;;;;;;;4.55;2.15;;;;;;;;;;12820343;19;20448;-66
2023/01/05 01:08:16;;;;;;;2.92;1.88;;;;;;;;;;12816578;19;20119;-66
2023/01/05 01:12:33;;;;;;;3.00;1.97;;;;;;;;;;12814697;19;20364;-71
2023/01/05 01:16:50;;;;;;;2.40;1.80;;;;;;;;;;12815412;19;20066;-65
2023/01/05 01:21:08;;;;;;;3.70;1.70;;;;;;;;;;12815549;19;20449;-66
2023/01/05 01:25:26;;;;;;;2.43;1.70;;;;;;;;;;12815422;19;20390;-65
2023/01/05 01:29:44;;;;;;;1.58;1.40;;;;;;;;;;12814616;19;20487;-65
2023/01/05 01:34:01;;;;;;;3.37;1.87;;;;;;;;;;12817087;19;20457;-70
2023/01/05 01:38:19;;;;;;;4.77;2.40;;;;;;;;;;12815083;19;20437;-66
2023/01/05 01:42:37;;;;;;;2.85;1.67;;;;;;;;;;12812965;19;20077;-68
2023/01/05 01:46:55;;;;;;;3.53;1.77;;;;;;;;;;12814501;19;20648;-65
2023/01/05 01:51:21;;;;;;;1.60;1.45;;;;;;;;;;12811500;19;20301;-66
2023/01/05 01:55:39;;;;;;;4.43;2.30;;;;;;;;;;12813897;19;20332;-66
2023/01/05 01:59:58;;;;;;;;;;;;;;;;;;12814594;19;20512;-66
2023/01/05 02:04:16;;;;;;;;;;;;;;;;;;12813457;19;20301;-65
2023/01/05 02:08:34;;;;;;;5.15;2.72;;;;;;;;;;12811651;19;20355;-68
2023/01/05 02:13:26;;;;;;;4.90;2.17;;;;;;;;;;12810667;19;20050;-68
2023/01/05 02:18:19;;;;;;;6.00;2.00;;;;;;;;;;12810772;19;20388;-66
2023/01/05 02:23:08;;;;;;;2.78;1.98;;;;;;;;;;12814486;19;20551;-71
2023/01/05 02:27:52;;;;;;;2.35;1.63;;;;;;;;;;12812586;19;20539;-66
2023/01/05 02:32:53;;;;;;;2.03;1.70;;;;;;;;;;12808708;19;20394;-70
2023/01/05 02:37:31;;;;;;;4.38;2.22;;;;;;;;;;12812079;19;20826;-69
2023/01/05 02:42:11;;;;;;;3.17;1.77;;;;;;;;;;12808607;19;20390;-66
2023/01/05 02:46:29;;;;;;;6.50;1.60;;;;;;;;;;12811678;19;20496;-67
2023/01/05 02:51:01;;;;;;;2.58;1.63;;;;;;;;;;12813197;19;20414;-71
2023/01/05 02:55:28;;;;;;;2.20;1.30;;;;;;;;;;12810145;19;20433;-66
2023/01/05 02:59:53;;;;;;;2.47;1.50;;;;;;;;;;12808671;19;20436;-66
2023/01/05 03:04:22;;;;;;;3.03;1.90;;;;;;;;;;12808710;19;20354;-67
2023/01/05 03:08:51;;;;;;;2.67;1.63;;;;;;;;;;12810355;19;20010;-65
2023/01/05 03:17:53;;;;;;;2.92;1.83;;;;;;;;;;12809937;19;20362;-67
2023/01/05 03:36:28;;;;;;;3.33;1.23;;;;;;;;;;12821079;19;20431;-66
2023/01/05 03:40:52;;;;;;;2.15;1.15;;;;;;;;;;12821132;19;20320;-67
2023/01/05 03:45:11;;;;;;;2.72;1.52;;;;;;;;;;12819140;19;20362;-67
2023/01/05 03:49:28;;;;;;;2.03;1.45;;;;;;;;;;12819460;19;20360;-66
2023/01/05 03:53:46;;;;;;;2.67;1.70;;;;;;;;;;12815412;19;20853;-66
2023/01/05 03:58:03;;;;;;;3.70;1.40;;;;;;;;;;12820257;19;20513;-66
2023/01/05 04:02:21;;;;;;;1.50;1.27;;;;;;;;;;12821842;19;20414;-66
2023/01/05 04:06:39;;;;;;;3.65;1.65;;;;;;;;;;12819556;19;20444;-68
2023/01/05 04:11:03;;;;;;;4.37;1.50;;;;;;;;;;12819650;19;20420;-71
2023/01/05 04:15:20;;;;;;;3.83;1.80;;;;;;;;;;12817707;19;20493;-66
2023/01/05 04:19:38;;;;;;;13.83;2.47;;;;;;;;;;12819105;19;20523;-68
2023/01/05 04:23:55;;;;;;;2.35;1.40;;;;;;;;;;12819756;19;20499;-66
2023/01/05 04:28:12;;;;;;;3.65;1.50;;;;;;;;;;12811974;19;20010;-67
2023/01/05 04:32:30;;;;;;;2.10;1.75;;;;;;;;;;12817963;19;20472;-67
2023/01/05 04:36:48;;;;;;;4.90;1.80;;;;;;;;;;12818557;19;20426;-66
2023/01/05 04:41:05;;;;;;;4.22;1.73;;;;;;;;;;12818019;19;20562;-66
2023/01/05 04:45:23;;;;;;;2.40;1.77;;;;;;;;;;12818705;19;20513;-67
2023/01/05 04:49:41;;;;;;;5.30;1.92;;;;;;;;;;12817455;19;20421;-66
2023/01/05 04:53:59;;;;;;;2.47;1.65;;;;;;;;;;12816140;19;20508;-66
2023/01/05 04:58:18;;;;;;;3.00;1.77;;;;;;;;;;12817524;19;20559;-66
2023/01/05 05:02:35;;;;;;;2.38;1.42;;;;;;;;;;12816592;19;20473;-67
2023/01/05 05:06:54;;;;;;;2.60;1.67;;;;;;;;;;12817092;19;20337;-66
2023/01/05 05:11:12;;;;;;;4.82;2.00;;;;;;;;;;12816352;19;20074;-67
2023/01/05 05:15:30;;;;;;;6.57;1.85;;;;;;;;;;12812396;19;20372;-67
2023/01/05 05:19:47;;;;;;;4.33;1.70;;;;;;;;;;12816597;19;20800;-66
2023/01/05 05:24:05;;;;;;;3.17;1.90;;;;;;;;;;12815356;19;20329;-66
2023/01/05 05:28:26;;;;;;;3.78;2.05;;;;;;;;;;12818345;19;20468;-68
2023/01/05 05:32:44;;;;;;;4.50;1.77;;;;;;;;;;12814629;19;20677;-66
2023/01/05 05:37:02;;;;;;;2.50;1.40;;;;;;;;;;12816580;19;20500;-66
2023/01/05 05:41:19;;;;;;;2.03;1.25;;;;;;;;;;12812763;19;20370;-70
2023/01/05 05:45:37;;;;;;;5.23;2.33;;;;;;;;;;12814396;19;20436;-66
2023/01/05 05:49:54;;;;;;;2.70;1.27;;;;;;;;;;12814468;19;20467;-66
2023/01/05 05:54:12;;;;;;;2.30;1.50;;;;;;;;;;12813527;19;20483;-66
2023/01/05 05:58:30;;;;;;;3.23;1.50;;;;;;;;;;12813754;19;20468;-68
2023/01/05 06:02:47;;;;;;;2.07;0.90;;;;;;;;;;12814185;19;20034;-66
2023/01/05 06:07:05;;;;;;;3.03;0.67;;;;;;;;;;12815122;19;20409;-68
2023/01/05 06:11:23;;;;;;;0.43;0.43;;;;;;;;;;12780862;19;20362;-67
2023/01/05 06:15:41;;;;;;;1.90;0.60;;;;;;;;;;12811636;19;20314;-67
2023/01/05 06:19:59;;;;;;;6.50;0.90;;;;;;;;;;12811006;19;20401;-66
2023/01/05 06:24:17;;;;;;;2.53;0.87;;;;;;;;;;12813000;19;20481;-72
2023/01/05 06:28:34;;;;;;;1.60;0.80;;;;;;;;;;12812735;19;20372;-67
2023/01/05 06:32:52;;;;;;;2.50;1.42;;;;;;;;;;12813440;19;20468;-72
2023/01/05 06:37:09;;;;;;;2.50;1.70;;;;;;;;;;12811728;19;20391;-66
2023/01/05 06:41:27;;;;;;;2.35;1.08;;;;;;;;;;12810958;19;20375;-68
2023/01/05 06:45:44;;;;;;;1.75;1.02;;;;;;;;;;12810775;19;20579;-66
2023/01/05 06:50:02;;;;;;;4.33;2.23;;;;;;;;;;12813444;19;20488;-69
2023/01/05 06:54:20;;;;;;;2.00;1.33;;;;;;;;;;12830959;19;20090;-68
2023/01/05 06:58:37;;;;;;;4.25;1.67;;;;;;;;;;12846153;19;20367;-67
2023/01/05 07:02:55;;;;;;;3.03;0.77;;;;;;;;;;12848743;19;20380;-67
2023/01/05 07:07:14;;;;;;;2.00;0.80;;;;;;;;;;12845659;19;20429;-67
2023/01/05 07:11:33;;;;;;;2.13;1.27;;;;;;;;;;12847608;19;20789;-67
2023/01/05 07:15:51;;;;;;;1.50;0.80;;;;;;;;;;12847076;19;20388;-67
2023/01/05 07:20:09;;;;;;;2.63;1.00;;;;;;;;;;12849340;19;20752;-67
2023/01/05 07:24:26;;;;;;;2.47;0.93;;;;;;;;;;12847092;19;20423;-67
2023/01/05 07:28:44;;;;;;;1.63;1.10;;;;;;;;;;12845506;19;20428;-66
2023/01/05 07:33:02;;;;;;;2.47;0.93;;;;;;;;;;12844135;19;20460;-67
2023/01/05 07:37:20;;;;;;;1.90;1.00;;;;;;;;;;12845333;19;20509;-67
2023/01/05 07:41:37;;;;;;;1.40;0.80;;;;;;;;;;12845284;19;20426;-66
2023/01/05 07:46:02;;;;;;;1.40;0.73;;;;;;;;;;12846233;19;20571;-66
2023/01/05 07:50:20;;;;;;;0.68;0.68;;;;;;;;;;12845343;19;20263;-68
2023/01/05 07:54:37;;;;;;;3.23;0.90;;;;;;;;;;12843638;19;20526;-68
2023/01/05 07:58:55;;;;;;;6.05;1.08;;;;;;;;;;12845564;19;20429;-66
2023/01/05 08:03:14;;;;;;;2.47;0.95;;;;;;;;;;12843449;19;20477;-74
2023/01/05 08:07:31;;;;;;;2.08;0.63;;;;;;;;;;12845425;19;20413;-66
2023/01/05 08:11:49;;;;;;;1.73;0.95;;;;;;;;;;12842461;19;20089;-66
2023/01/05 08:16:07;;;;;;;2.30;1.58;;;;;;;;;;12842096;19;20710;-66
2023/01/05 08:20:24;;;;;;;2.92;0.82;;;;;;;;;;12842669;19;20014;-66
2023/01/05 08:24:42;;;;;;;2.27;1.23;;;;;;;;;;12843352;19;20361;-66
2023/01/05 08:29:00;;;;;;;4.20;1.70;;;;;;;;;;12843907;19;20489;-66
2023/01/05 08:33:17;;;;;;;3.97;1.90;;;;;;;;;;12842717;19;20010;-66
2023/01/05 08:37:34;;;;;;;2.33;1.25;;;;;;;;;;12841626;19;20436;-66
2023/01/05 08:41:52;;;;;;;3.40;1.23;;;;;;;;;;12842093;19;20444;-66
2023/01/05 08:46:19;;;;;;;6.13;2.17;;;;;;;;;;12842411;19;20022;-67
2023/01/05 08:50:37;;;;;;;1.63;1.15;;;;;;;;;;12842240;19;20367;-66
2023/01/05 08:54:54;;;;;;;3.37;1.83;;;;;;;;;;12839945;19;20365;-66
2023/01/05 08:59:12;;;;;;;2.80;1.67;;;;;;;;;;12841208;19;20381;-66
2023/01/05 09:03:30;;;;;;;3.75;2.10;;;;;;;;;;12839889;19;20501;-66
2023/01/05 09:07:47;;;;;;;3.45;1.55;;;;;;;;;;12841227;19;20315;-66
2023/01/05 09:12:06;;;;;;;3.22;1.75;;;;;;;;;;12840813;19;20347;-66
2023/01/05 09:16:28;;;;;;;4.50;2.07;;;;;;;;;;12838583;19;20358;-67
2023/01/05 09:21:06;;;;;;;4.80;1.98;;;;;;;;;;12764053;19;20063;-66
2023/01/05 09:25:24;;;;;;;7.05;2.55;;;;;;;;;;12839441;19;20477;-66
2023/01/05 09:29:42;;;;;;;5.03;2.13;;;;;;;;;;12838043;19;20338;-66
2023/01/05 09:33:59;;;;;;;15.73;4.27;;;;;;;;;;12840288;19;20489;-66
2023/01/05 09:38:17;;;;;;;7.43;3.03;;;;;;;;;;12839187;19;20086;-67
2023/01/05 09:42:39;;;;;;;4.80;2.00;;;;;;;;;;12839295;19;20367;-66
2023/01/05 09:47:00;;;;;;;6.75;2.20;;;;;;;;;;12837782;19;20373;-66
2023/01/05 09:51:17;;;;;;;2.75;1.63;;;;;;;;;;12836655;19;20441;-67
2023/01/05 09:55:35;;;;;;;3.13;1.80;;;;;;;;;;12838117;19;20497;-66
2023/01/05 09:59:57;;;;;;;5.37;1.73;;;;;;;;;;12839721;19;20370;-66
2023/01/05 10:04:18;;;;;;;3.75;1.73;;;;;;;;;;12836668;19;20254;-66
2023/01/05 10:08:43;;;;;;;6.10;2.20;;;;;;;;;;12835927;19;20365;-66
2023/01/05 10:13:03;;;;;;;5.78;1.90;;;;;;;;;;12836452;19;20553;-66
2023/01/05 10:17:22;;;;;;;5.47;2.10;;;;;;;;;;12836156;19;20287;-67
2023/01/05 10:22:23;;;;;;;5.78;1.77;;;;;;;;;;12837195;19;20068;-66
2023/01/05 10:26:58;;;;;;;4.07;1.90;;;;;;;;;;12835369;19;20425;-66
2023/01/05 10:31:44;;;;;;;4.03;2.33;;;;;;;;;;12839634;19;20422;-67
2023/01/05 10:36:15;;;;;;;5.80;2.40;;;;;;;;;;12836002;19;20429;-65
2023/01/05 10:41:18;;;;;;;6.07;2.42;;;;;;;;;;12833141;19;20446;-65
2023/01/05 10:45:36;;;;;;;7.90;2.63;;;;;;;;;;12836366;19;20513;-67
2023/01/05 10:50:37;;;;;;;5.80;2.47;;;;;;;;;;12833230;19;20368;-66
2023/01/05 10:54:59;;;;;;;5.53;2.10;;;;;;;;;;12834069;19;20082;-66
2023/01/05 10:59:17;;;;;;;6.18;2.22;;;;;;;;;;12834423;19;20375;-66
2023/01/05 11:03:39;;;;;;;3.72;1.65;;;;;;;;;;12763061;19;20023;-67
2023/01/05 11:08:28;;;;;;;4.18;2.00;;;;;;;;;;12834102;19;20389;-65
2023/01/05 11:13:32;;;;;;;6.97;1.90;;;;;;;;;;12833133;19;20497;-65
2023/01/05 11:17:50;;;;;;;5.40;1.70;;;;;;;;;;12831028;19;20465;-65
2023/01/05 11:22:38;;;;;;;4.60;1.67;;;;;;;;;;12833717;19;20396;-67
2023/01/05 11:27:19;;;;;;;5.55;1.98;;;;;;;;;;12832157;19;20538;-65
2023/01/05 11:31:52;;;;;;;4.57;2.47;;;;;;;;;;12831588;19;20496;-66
2023/01/05 11:36:13;;;;;;;7.53;2.97;;;;;;;;;;12830599;19;20465;-66
2023/01/05 11:40:34;;;;;;;3.28;1.50;;;;;;;;;;12838068;19;20359;-65
2023/01/05 11:45:20;;;;;;;5.13;1.52;;;;;;;;;;12843171;19;20549;-67
2023/01/05 11:49:37;;;;;;;5.28;2.08;;;;;;;;;;12844303;19;20489;-65
2023/01/05 11:53:55;;;;;;;6.22;2.38;;;;;;;;;;12821684;19;20512;-65
2023/01/05 11:58:25;;;;;;;5.85;1.83;;;;;;;;;;12842398;19;20111;-66
2023/01/05 12:03:02;;;;;;;6.00;1.70;;;;;;;;;;12841185;19;20007;-65
2023/01/05 12:07:36;;;;;;;5.68;2.15;;;;;;;;;;12844610;19;20429;-66
2023/01/05 12:11:53;;;;;;;5.43;1.70;;;;;;;;;;12841573;19;20433;-66
2023/01/05 12:16:26;;;;;;;3.40;1.45;;;;;;;;;;12842201;19;20530;-65
2023/01/05 12:21:00;;;;;;;4.18;1.63;;;;;;;;;;12843902;19;20379;-66
2023/01/05 12:25:24;;;;;;;3.75;1.50;;;;;;;;;;12841881;19;20034;-66
2023/01/05 12:30:15;;;;;;;4.63;1.60;;;;;;;;;;12841693;19;20309;-65
2023/01/05 12:35:18;;;;;;;3.22;1.00;;;;;;;;;;12841987;19;20014;-65
2023/01/05 12:40:05;;;;;;;4.50;1.50;;;;;;;;;;12841148;19;20450;-66
2023/01/05 12:44:43;;;;;;;1.02;0.73;;;;;;;;;;12841437;19;20530;-65
2023/01/05 12:49:09;;;;;;;4.00;1.55;;;;;;;;;;12839867;19;20383;-66
2023/01/05 12:53:42;;;;;;;3.28;1.33;;;;;;;;;;12839210;19;20461;-66
2023/01/05 12:58:30;;;;;;;30.67;3.70;;;;;;;;;;12839757;19;20517;-66
2023/01/05 13:02:59;;;;;;;26.17;2.95;;;;;;;;;;12841297;19;20493;-67
2023/01/05 13:07:31;;;;;;;8.63;5.03;;;;;;;;;;12839710;19;20006;-66
2023/01/05 13:12:03;;;;;;;14.48;6.65;;;;;;;;;;12840747;19;20469;-66
2023/01/05 13:16:40;;;;;;;16.67;2.35;;;;;;;;;;12769062;19;20372;-67
2023/01/05 13:21:02;;;;;;;12.90;7.00;;;;;;;;;;12840480;19;20472;-68
2023/01/05 13:25:26;;;;;;;7.82;3.90;;;;;;;;;;12839409;19;20330;-67
2023/01/05 13:29:49;;;;;;;6.28;3.40;;;;;;;;;;12840694;19;20350;-67
2023/01/05 13:34:16;;;;;;;6.28;3.85;;;;;;;;;;12839598;19;20465;-68
2023/01/05 13:39:23;;;;;;;4.10;3.00;;;;;;;;;;12841191;19;20440;-69
2023/01/05 13:44:27;;;;;;;2.65;1.33;;;;;;;;;;12837882;19;20505;-66
2023/01/05 13:48:57;;;;;;;1.58;0.90;;;;;;;;;;12839469;19;20803;-67
2023/01/05 13:53:24;;;;;;;5.57;1.55;;;;;;;;;;12838724;19;20449;-66
2023/01/05 13:57:43;;;;;;;3.15;1.55;;;;;;;;;;12839471;19;20027;-67
2023/01/05 14:02:02;;;;;;;3.60;2.15;;;;;;;;;;12837905;19;20351;-66
2023/01/05 14:06:36;;;;;;;4.03;1.88;;;;;;;;;;12836937;19;20323;-66
2023/01/05 14:11:14;;;;;;;6.10;1.95;;;;;;;;;;12837093;19;20368;-66
2023/01/05 14:15:43;;;;;;;2.78;1.60;;;;;;;;;;12838370;19;20338;-66
2023/01/05 14:20:00;;;;;;;;;;;;;;;;;;12837160;19;20011;-66
2023/01/05 14:24:37;;;;;;;5.90;1.83;;;;;;;;;;12837121;19;20267;-66
2023/01/05 14:28:55;;;;;;;2.90;1.63;;;;;;;;;;12835639;19;20330;-66
2023/01/05 14:33:17;;;;;;;3.72;1.63;;;;;;;;;;12834500;19;20317;-66
2023/01/05 14:37:59;;;;;;;5.13;2.20;;;;;;;;;;12836446;19;20368;-66
2023/01/05 14:42:31;;;;;;;4.28;1.83;;;;;;;;;;12834204;19;20039;-67
2023/01/05 14:46:54;;;;;;;3.97;1.88;;;;;;;;;;12836703;19;20010;-66
2023/01/05 14:51:14;;;;;;;3.88;1.52;;;;;;;;;;12834176;19;20385;-67
2023/01/05 14:56:02;;;;;;;5.13;2.75;;;;;;;;;;12835493;19;20095;-66
2023/01/05 15:00:47;;;;;;;4.10;1.95;;;;;;;;;;12834254;19;20306;-66
2023/01/05 15:05:16;;;;;;;3.45;1.55;;;;;;;;;;12833286;19;20501;-66
2023/01/05 15:09:47;;;;;;;4.35;2.08;;;;;;;;;;12833240;19;20091;-66
2023/01/05 15:14:30;;;;;;;6.40;2.78;;;;;;;;;;12837179;19;20482;-67
2023/01/05 15:19:20;;;;;;;7.38;3.17;;;;;;;;;;12846200;19;20357;-67
2023/01/05 15:24:20;;;;;;;6.63;2.88;;;;;;;;;;12844910;19;20359;-67
2023/01/05 15:29:38;;;;;;;6.55;3.00;;;;;;;;;;12846719;19;20360;-66
2023/01/05 15:34:15;;;;;;;10.60;4.10;;;;;;;;;;12846876;19;20365;-66
2023/01/05 15:38:44;;;;;;;10.45;5.78;;;;;;;;;;12845441;19;19999;-66
2023/01/05 15:43:03;;;;;;;10.38;5.15;;;;;;;;;;12844930;19;20371;-66
2023/01/05 15:47:24;;;;;;;7.35;3.97;;;;;;;;;;12844415;19;20014;-66
2023/01/05 15:51:48;;;;;;;10.55;3.58;;;;;;;;;;12844449;19;20436;-66
2023/01/05 15:56:24;;;;;;;10.27;4.03;;;;;;;;;;12845583;19;20351;-66
2023/01/05 16:00:42;;;;;;;8.20;3.75;;;;;;;;;;12844835;19;20397;-68
2023/01/05 16:05:22;;;;;;;6.80;3.10;;;;;;;;;;12845480;19;20014;-66
2023/01/05 16:09:45;;;;;;;8.73;2.95;;;;;;;;;;12846480;19;20436;-66
2023/01/05 16:14:12;;;;;;;4.57;2.00;;;;;;;;;;12841497;19;20468;-66
2023/01/05 16:18:38;;;;;;;5.07;2.33;;;;;;;;;;12842090;19;20014;-69
2023/01/05 16:23:15;;;;;;;7.45;2.35;;;;;;;;;;12844527;19;20454;-66
2023/01/05 16:27:39;;;;;;;8.10;3.78;;;;;;;;;;12840575;19;20018;-67
2023/01/05 16:31:56;;;;;;;6.38;2.40;;;;;;;;;;12844228;19;20436;-65
2023/01/05 16:36:21;;;;;;;4.60;2.58;;;;;;;;;;12839754;19;20501;-66
2023/01/05 16:40:44;;;;;;;7.13;2.92;;;;;;;;;;12841247;19;20338;-66
2023/01/05 16:45:01;;;;;;;5.53;2.70;;;;;;;;;;12840631;19;20291;-65
2023/01/05 16:49:39;;;;;;;6.50;1.92;;;;;;;;;;12840494;19;20334;-65
2023/01/05 16:54:43;;;;;;;7.70;3.50;;;;;;;;;;12839825;19;20359;-66
2023/01/05 16:59:29;;;;;;;6.40;2.33;;;;;;;;;;12839827;19;20335;-69
2023/01/05 17:03:47;;;;;;;4.90;2.33;;;;;;;;;;12840541;19;20021;-65
2023/01/05 17:08:09;;;;;;;5.35;2.90;;;;;;;;;;12837827;19;20347;-66
2023/01/05 17:12:26;;;;;;;7.00;2.70;;;;;;;;;;12840587;19;20347;-66
2023/01/05 17:16:44;;;;;;;3.40;1.77;;;;;;;;;;12838234;19;20440;-67
2023/01/05 17:21:04;;;;;;;8.20;2.85;;;;;;;;;;12840058;19;20744;-67
2023/01/05 17:25:30;;;;;;;7.88;2.33;;;;;;;;;;12838803;19;20422;-66
2023/01/05 17:29:47;;;;;;;5.13;2.63;;;;;;;;;;12839556;19;20356;-66
2023/01/05 17:34:05;;;;;;;6.07;1.75;;;;;;;;;;12838802;19;20357;-67
2023/01/05 17:38:23;;;;;;;6.10;2.17;;;;;;;;;;12837963;19;20363;-66
2023/01/05 17:42:43;;;;;;;5.22;2.58;;;;;;;;;;12836032;19;20355;-67
2023/01/05 17:47:01;;;;;;;4.15;2.55;;;;;;;;;;12839827;19;20480;-68
2023/01/05 17:51:19;;;;;;;6.40;2.50;;;;;;;;;;12834908;19;20357;-67
2023/01/05 17:55:37;;;;;;;7.77;2.70;;;;;;;;;;12837947;19;20457;-70
2023/01/05 17:59:54;;;;;;;4.88;1.92;;;;;;;;;;12839193;19;20485;-66
2023/01/05 18:04:12;;;;;;;6.65;3.08;;;;;;;;;;12837303;19;20426;-67
2023/01/05 18:08:30;;;;;;;5.10;1.88;;;;;;;;;;12838138;19;20469;-67
2023/01/05 18:12:47;;;;;;;6.33;3.07;;;;;;;;;;12837670;19;20007;-66
2023/01/05 18:17:05;;;;;;;7.53;2.27;;;;;;;;;;12837392;19;20482;-67
2023/01/05 18:21:22;;;;;;;8.80;4.20;;;;;;;;;;12838185;19;20376;-67
2023/01/05 18:25:40;;;;;;;5.63;2.38;;;;;;;;;;12837993;19;20627;-66
2023/01/05 18:29:57;;;;;;;5.93;2.55;;;;;;;;;;12837538;19;20014;-66
2023/01/05 18:34:15;;;;;;;8.13;3.00;;;;;;;;;;12836106;19;20029;-67
2023/01/05 18:38:33;;;;;;;9.80;4.47;;;;;;;;;;12837203;19;20608;-67
2023/01/05 18:42:50;;;;;;;8.57;4.38;;;;;;;;;;12834631;19;20328;-67
2023/01/05 18:47:08;;;;;;;9.48;3.45;;;;;;;;;;12835951;19;20504;-67
2023/01/05 18:51:26;;;;;;;8.38;3.75;;;;;;;;;;12847198;19;20323;-67
2023/01/05 18:55:43;;;;;;;8.05;2.78;;;;;;;;;;12847024;19;20034;-67
2023/01/05 19:00:04;;;;;;;8.80;3.45;;;;;;;;;;12848487;19;20379;-69
2023/01/05 19:04:21;;;;;;;6.13;2.53;;;;;;;;;;12846260;19;20493;-67
2023/01/05 19:08:40;;;;;;;7.45;2.25;;;;;;;;;;12792256;19;20354;-66
2023/01/05 19:12:59;;;;;;;4.85;2.13;;;;;;;;;;12846479;19;20347;-67
2023/01/05 19:17:16;;;;;;;5.03;2.30;;;;;;;;;;12846401;19;20337;-67
2023/01/05 19:21:38;;;;;;;4.60;1.75;;;;;;;;;;12847302;19;20044;-67
2023/01/05 19:26:04;;;;;;;6.20;2.58;;;;;;;;;;12845982;19;20422;-67
2023/01/05 19:30:23;;;;;;;4.55;2.13;;;;;;;;;;12846975;19;20357;-67
2023/01/05 19:34:41;;;;;;;5.03;1.88;;;;;;;;;;12846650;19;20495;-66
2023/01/05 19:39:27;;;;;;;6.15;2.67;;;;;;;;;;12846495;19;20502;-67
2023/01/05 19:43:52;;;;;;;8.48;3.88;;;;;;;;;;12843840;19;20434;-67
2023/01/05 19:48:10;;;;;;;4.28;2.05;;;;;;;;;;12844986;19;20477;-68
2023/01/05 19:52:28;;;;;;;5.18;2.55;;;;;;;;;;12845299;19;20498;-67
2023/01/05 19:56:46;;;;;;;12.50;5.50;;;;;;;;;;12844529;19;20370;-66
2023/01/05 20:01:12;;;;;;;9.50;4.03;;;;;;;;;;12842797;19;20465;-66
2023/01/05 20:05:30;;;;;;;7.90;2.95;;;;;;;;;;12844177;19;20639;-66
2023/01/05 20:09:50;;;;;;;13.07;3.83;;;;;;;;;;12843718;19;20448;-67
2023/01/05 20:14:23;;;;;;;4.50;1.85;;;;;;;;;;12841363;19;20094;-66
2023/01/05 20:18:41;;;;;;;10.50;3.85;;;;;;;;;;12843299;19;20438;-66
2023/01/05 20:22:59;;;;;;;11.20;3.70;;;;;;;;;;12843346;19;20359;-66
2023/01/05 20:27:17;;;;;;;10.93;3.83;;;;;;;;;;12844251;19;20537;-66
2023/01/05 20:31:40;;;;;;;9.82;3.60;;;;;;;;;;12841721;19;20488;-66
2023/01/05 20:35:57;;;;;;;6.32;2.33;;;;;;;;;;12840574;19;20488;-67
2023/01/05 20:40:15;;;;;;;3.80;1.83;;;;;;;;;;12841564;19;20469;-66
2023/01/05 20:44:36;;;;;;;5.67;1.70;;;;;;;;;;12841278;19;20015;-67
2023/01/05 20:48:54;;;;;;;7.57;3.30;;;;;;;;;;12841722;19;20438;-66
2023/01/05 20:53:11;;;;;;;6.67;2.87;;;;;;;;;;12841057;19;20492;-66
2023/01/05 20:57:29;;;;;;;12.32;5.13;;;;;;;;;;12840806;19;20481;-66
2023/01/05 21:01:48;;;;;;;8.03;3.90;;;;;;;;;;12838001;19;20353;-67
2023/01/05 21:06:09;;;;;;;9.57;3.17;;;;;;;;;;12838424;19;20311;-66
2023/01/05 21:10:27;;;;;;;7.65;3.42;;;;;;;;;;12837756;19;20429;-67
2023/01/05 21:14:45;;;;;;;8.73;1.42;;;;;;;;;;12836033;19;20474;-66
2023/01/05 21:19:04;;;;;;;7.97;3.03;;;;;;;;;;12838529;19;20006;-66
2023/01/05 21:23:22;;;;;;;4.55;2.45;;;;;;;;;;12840359;19;20250;-65
2023/01/05 21:27:42;;;;;;;5.20;1.80;;;;;;;;;;12841279;19;20362;-65
2023/01/05 21:32:00;;;;;;;7.63;3.00;;;;;;;;;;12839921;19;20509;-66
2023/01/05 21:36:30;;;;;;;3.38;1.45;;;;;;;;;;12836583;19;20433;-66
2023/01/05 21:40:47;;;;;;;4.43;2.92;;;;;;;;;;12839340;19;20498;-65
2023/01/05 21:45:07;;;;;;;7.72;2.35;;;;;;;;;;12837982;19;20394;-66
2023/01/05 21:49:25;;;;;;;4.22;2.38;;;;;;;;;;12839420;19;20417;-66
2023/01/05 21:58:20;;;;;;;3.03;1.50;;;;;;;;;;12837921;19;20380;-65
2023/01/05 22:02:37;;;;;;;2.47;1.65;;;;;;;;;;12835629;19;20422;-66
2023/01/05 22:06:55;;;;;;;2.97;1.40;;;;;;;;;;12838203;19;20438;-66
2023/01/05 22:11:12;;;;;;;5.78;1.55;;;;;;;;;;12836672;19;20335;-65
2023/01/05 22:15:30;;;;;;;4.10;2.03;;;;;;;;;;12835015;19;20355;-66
2023/01/05 22:19:47;;;;;;;5.67;2.83;;;;;;;;;;12836193;19;20484;-65
2023/01/05 22:24:06;;;;;;;4.33;1.67;;;;;;;;;;12835790;19;20081;-66
2023/01/05 22:28:23;;;;;;;;;;;;;;;;;;12837690;19;20363;-66
2023/01/05 22:32:41;;;;;;;3.65;1.67;;;;;;;;;;12834329;19;19956;-65
2023/01/05 22:36:58;;;;;;;5.40;2.20;;;;;;;;;;12331566;19;10000703;-65
2023/01/05 22:41:23;;;;;;;5.97;1.73;;;;;;;;;;12834642;19;20535;-66
2023/01/05 22:45:43;;;;;;;2.57;0.90;;;;;;;;;;12835400;19;20448;-66
2023/01/05 22:50:02;;;;;;;4.93;2.10;;;;;;;;;;12835617;19;20448;-68
2023/01/05 22:54:20;;;;;;;6.57;2.20;;;;;;;;;;12835535;19;20371;-66
2023/01/05 22:58:39;;;;;;;4.75;2.65;;;;;;;;;;12835073;19;20385;-66
2023/01/05 23:02:58;;;;;;;5.10;2.05;;;;;;;;;;12835536;19;20579;-66
2023/01/05 23:07:19;;;;;;;4.85;2.10;;;;;;;;;;12833276;19;20015;-65
2023/01/05 23:11:39;;;;;;;7.00;1.92;;;;;;;;;;12834611;19;20513;-66
2023/01/05 23:15:58;;;;;;;4.40;2.17;;;;;;;;;;12835074;19;20694;-65
2023/01/05 23:20:15;;;;;;;6.45;2.75;;;;;;;;;;12834601;19;20536;-67
2023/01/05 23:24:33;;;;;;;5.70;2.42;;;;;;;;;;12834440;19;20406;-65
2023/01/05 23:28:51;;;;;;;2.07;1.40;;;;;;;;;;12835031;19;20545;-65
2023/01/05 23:33:08;;;;;;;2.77;1.30;;;;;;;;;;12832136;19;20420;-65
2023/01/05 23:37:29;;;;;;;2.70;1.53;;;;;;;;;;12843753;19;20326;-67
2023/01/05 23:41:47;;;;;;;2.72;0.85;;;;;;;;;;12846686;19;20518;-65
2023/01/05 23:46:18;;;;;;;3.17;1.33;;;;;;;;;;12845598;19;20505;-65
2023/01/05 23:50:42;;;;;;;1.55;1.10;;;;;;;;;;12812724;19;20339;-67
2023/01/05 23:55:00;;;;;;;1.83;1.35;;;;;;;;;;12842408;19;20493;-66
2023/01/05 23:59:18;;;;;;;2.95;1.20;;;;;;;;;;12843477;19;20453;-66
